sensor_id;sensor_type;location;lat;lon;timestamp;temperature;humidity
11894;DHT22;6006;49.696;8.662;2024-01-16T00:01:05;-1.90;1.00
11894;DHT22;6006;49.696;8.662;2024-01-16T00:03:34;-2.00;1.00
11894;DHT22;6006;49.696;8.662;2024-01-16T00:06:01;-2.10;99.90
11894;DHT22;6006;49.696;8.662;2024-01-16T00:08:28;-2.10;99.90
11894;DHT22;6006;49.696;8.662;2024-01-16T00:10:55;-2.20;99.90
11894;DHT22;6006;49.696;8.662;2024-01-16T00:13:22;-2.30;99.90
11894;DHT22;6006;49.696;8.662;2024-01-16T00:15:48;-2.30;99.90
11894;DHT22;6006;49.696;8.662;2024-01-16T00:18:16;-2.10;1.00
11894;DHT22;6006;49.696;8.662;2024-01-16T00:20:44;-1.70;1.00
11894;DHT22;6006;49.696;8.662;2024-01-16T00:23:11;-2.20;1.00
11894;DHT22;6006;49.696;8.662;2024-01-16T00:25:38;-2.10;1.00
11894;DHT22;6006;49.696;8.662;2024-01-16T00:28:05;-2.00;1.00
11894;DHT22;6006;49.696;8.662;2024-01-16T00:30:32;-1.90;1.00
11894;DHT22;6006;49.696;8.662;2024-01-16T00:32:59;-1.90;1.00
11894;DHT22;6006;49.696;8.662;2024-01-16T00:35:28;-2.00;99.90
11894;DHT22;6006;49.696;8.662;2024-01-16T00:37:56;-2.10;99.90
11894;DHT22;6006;49.696;8.662;2024-01-16T00:40:23;-2.10;99.90
11894;DHT22;6006;49.696;8.662;2024-01-16T00:42:50;-2.10;1.00
11894;DHT22;6006;49.696;8.662;2024-01-16T00:45:17;-2.00;1.00
11894;DHT22;6006;49.696;8.662;2024-01-16T00:47:44;-1.90;1.00
11894;DHT22;6006;49.696;8.662;2024-01-16T00:50:10;-1.80;1.00
11894;DHT22;6006;49.696;8.662;2024-01-16T00:52:37;-1.60;1.00
11894;DHT22;6006;49.696;8.662;2024-01-16T00:55:06;-1.50;1.00
11894;DHT22;6006;49.696;8.662;2024-01-16T00:57:33;-1.40;1.00
11894;DHT22;6006;49.696;8.662;2024-01-16T01:00:00;-1.30;1.00
11894;DHT22;6006;49.696;8.662;2024-01-16T01:02:27;-1.30;1.00
11894;DHT22;6006;49.696;8.662;2024-01-16T01:04:54;-1.20;99.90
11894;DHT22;6006;49.696;8.662;2024-01-16T01:07:21;-1.10;99.90
11894;DHT22;6006;49.696;8.662;2024-01-16T01:09:48;-1.00;99.90
11894;DHT22;6006;49.696;8.662;2024-01-16T01:12:16;-1.00;99.90
11894;DHT22;6006;49.696;8.662;2024-01-16T01:14:43;-1.00;1.00
11894;DHT22;6006;49.696;8.662;2024-01-16T01:17:10;-1.00;1.00
11894;DHT22;6006;49.696;8.662;2024-01-16T01:19:36;-1.00;1.00
11894;DHT22;6006;49.696;8.662;2024-01-16T01:22:04;-1.00;1.00
11894;DHT22;6006;49.696;8.662;2024-01-16T01:24:31;-1.00;1.00
11894;DHT22;6006;49.696;8.662;2024-01-16T01:26:58;-1.00;99.90
11894;DHT22;6006;49.696;8.662;2024-01-16T01:29:26;-1.10;99.90
11894;DHT22;6006;49.696;8.662;2024-01-16T01:31:53;-1.10;99.90
11894;DHT22;6006;49.696;8.662;2024-01-16T01:34:19;-1.20;1.00
11894;DHT22;6006;49.696;8.662;2024-01-16T01:36:46;-1.20;1.00
11894;DHT22;6006;49.696;8.662;2024-01-16T01:39:13;-1.00;1.00
11894;DHT22;6006;49.696;8.662;2024-01-16T01:41:40;-1.10;46.70
11894;DHT22;6006;49.696;8.662;2024-01-16T01:44:07;-1.20;1.00
11894;DHT22;6006;49.696;8.662;2024-01-16T01:46:42;-1.30;1.00
11894;DHT22;6006;49.696;8.662;2024-01-16T01:49:12;-1.40;99.90
11894;DHT22;6006;49.696;8.662;2024-01-16T01:51:39;-1.50;99.90
11894;DHT22;6006;49.696;8.662;2024-01-16T01:54:06;-1.50;1.00
11894;DHT22;6006;49.696;8.662;2024-01-16T01:56:33;-1.60;1.00
11894;DHT22;6006;49.696;8.662;2024-01-16T01:59:00;-1.70;1.00
11894;DHT22;6006;49.696;8.662;2024-01-16T02:01:29;-1.70;99.90
11894;DHT22;6006;49.696;8.662;2024-01-16T02:03:59;-1.70;99.90
11894;DHT22;6006;49.696;8.662;2024-01-16T02:06:27;-1.60;99.90
11894;DHT22;6006;49.696;8.662;2024-01-16T02:08:54;-1.60;99.90
11894;DHT22;6006;49.696;8.662;2024-01-16T02:11:21;-1.40;99.90
11894;DHT22;6006;49.696;8.662;2024-01-16T02:13:48;-1.30;1.00
11894;DHT22;6006;49.696;8.662;2024-01-16T02:16:19;-1.20;1.00
11894;DHT22;6006;49.696;8.662;2024-01-16T02:18:46;-0.90;99.90
11894;DHT22;6006;49.696;8.662;2024-01-16T02:21:17;-1.10;99.90
11894;DHT22;6006;49.696;8.662;2024-01-16T02:23:45;-1.00;99.90
11894;DHT22;6006;49.696;8.662;2024-01-16T02:26:13;-1.00;99.90
11894;DHT22;6006;49.696;8.662;2024-01-16T02:28:40;-0.90;99.90
11894;DHT22;6006;49.696;8.662;2024-01-16T02:31:07;-0.90;99.90
11894;DHT22;6006;49.696;8.662;2024-01-16T02:33:35;-0.60;99.90
11894;DHT22;6006;49.696;8.662;2024-01-16T02:36:01;-0.80;1.00
11894;DHT22;6006;49.696;8.662;2024-01-16T02:38:28;-0.80;1.00
11894;DHT22;6006;49.696;8.662;2024-01-16T02:40:57;-0.80;1.00
11894;DHT22;6006;49.696;8.662;2024-01-16T02:43:23;-0.80;1.00
11894;DHT22;6006;49.696;8.662;2024-01-16T02:45:52;-0.70;1.00
11894;DHT22;6006;49.696;8.662;2024-01-16T02:48:19;-0.70;1.00
11894;DHT22;6006;49.696;8.662;2024-01-16T02:50:46;-0.70;1.00
11894;DHT22;6006;49.696;8.662;2024-01-16T02:53:13;-0.70;1.00
11894;DHT22;6006;49.696;8.662;2024-01-16T02:55:40;-0.70;99.90
11894;DHT22;6006;49.696;8.662;2024-01-16T02:58:08;-0.70;99.90
11894;DHT22;6006;49.696;8.662;2024-01-16T03:00:35;-0.70;99.90
11894;DHT22;6006;49.696;8.662;2024-01-16T03:03:02;-0.60;7.40
11894;DHT22;6006;49.696;8.662;2024-01-16T03:05:30;-0.60;1.00
11894;DHT22;6006;49.696;8.662;2024-01-16T03:07:57;-0.60;1.00
11894;DHT22;6006;49.696;8.662;2024-01-16T03:10:23;-0.60;1.00
11894;DHT22;6006;49.696;8.662;2024-01-16T03:12:50;-0.60;99.90
11894;DHT22;6006;49.696;8.662;2024-01-16T03:15:18;-0.60;1.00
11894;DHT22;6006;49.696;8.662;2024-01-16T03:17:45;-0.60;1.00
11894;DHT22;6006;49.696;8.662;2024-01-16T03:20:12;-0.10;1.00
11894;DHT22;6006;49.696;8.662;2024-01-16T03:22:39;-0.60;1.00
11894;DHT22;6006;49.696;8.662;2024-01-16T03:25:08;-0.60;1.00
11894;DHT22;6006;49.696;8.662;2024-01-16T03:27:36;-0.70;1.00
11894;DHT22;6006;49.696;8.662;2024-01-16T03:30:04;-0.70;1.00
11894;DHT22;6006;49.696;8.662;2024-01-16T03:32:33;-0.70;1.00
11894;DHT22;6006;49.696;8.662;2024-01-16T03:35:00;-0.80;1.00
11894;DHT22;6006;49.696;8.662;2024-01-16T03:37:26;-0.90;99.90
11894;DHT22;6006;49.696;8.662;2024-01-16T03:39:53;-0.90;99.90
11894;DHT22;6006;49.696;8.662;2024-01-16T03:42:22;-0.90;99.90
11894;DHT22;6006;49.696;8.662;2024-01-16T03:44:49;-0.90;1.00
11894;DHT22;6006;49.696;8.662;2024-01-16T03:47:17;-1.00;1.00
11894;DHT22;6006;49.696;8.662;2024-01-16T03:49:45;-1.00;1.00
11894;DHT22;6006;49.696;8.662;2024-01-16T03:52:12;-1.00;1.00
11894;DHT22;6006;49.696;8.662;2024-01-16T03:54:39;-1.00;1.00
11894;DHT22;6006;49.696;8.662;2024-01-16T03:57:05;-1.00;1.00
11894;DHT22;6006;49.696;8.662;2024-01-16T03:59:32;-1.10;1.00
11894;DHT22;6006;49.696;8.662;2024-01-16T04:02:00;-1.20;93.60
11894;DHT22;6006;49.696;8.662;2024-01-16T04:04:28;-1.30;99.90
11894;DHT22;6006;49.696;8.662;2024-01-16T04:06:57;-1.30;99.90
11894;DHT22;6006;49.696;8.662;2024-01-16T04:09:23;-1.30;99.90
11894;DHT22;6006;49.696;8.662;2024-01-16T04:11:50;-1.30;99.90
11894;DHT22;6006;49.696;8.662;2024-01-16T04:14:17;-1.30;99.90
11894;DHT22;6006;49.696;8.662;2024-01-16T04:16:44;-1.20;99.90
11894;DHT22;6006;49.696;8.662;2024-01-16T04:19:11;-1.20;99.90
11894;DHT22;6006;49.696;8.662;2024-01-16T04:21:38;-1.10;99.90
11894;DHT22;6006;49.696;8.662;2024-01-16T04:24:06;-1.10;99.90
11894;DHT22;6006;49.696;8.662;2024-01-16T04:26:35;-1.20;99.90
11894;DHT22;6006;49.696;8.662;2024-01-16T04:29:03;-1.10;1.00
11894;DHT22;6006;49.696;8.662;2024-01-16T04:31:30;-1.10;1.00
11894;DHT22;6006;49.696;8.662;2024-01-16T04:33:58;-1.20;1.00
11894;DHT22;6006;49.696;8.662;2024-01-16T04:36:25;-1.10;1.00
11894;DHT22;6006;49.696;8.662;2024-01-16T04:38:51;-1.10;1.00
11894;DHT22;6006;49.696;8.662;2024-01-16T04:41:20;-1.10;99.90
11894;DHT22;6006;49.696;8.662;2024-01-16T04:43:46;-1.10;99.90
11894;DHT22;6006;49.696;8.662;2024-01-16T04:46:14;-1.10;99.90
11894;DHT22;6006;49.696;8.662;2024-01-16T04:48:41;-1.00;99.90
11894;DHT22;6006;49.696;8.662;2024-01-16T04:51:08;-1.00;99.90
11894;DHT22;6006;49.696;8.662;2024-01-16T04:53:35;-1.00;99.90
11894;DHT22;6006;49.696;8.662;2024-01-16T04:56:02;-1.00;99.90
11894;DHT22;6006;49.696;8.662;2024-01-16T04:58:30;-1.00;99.90
11894;DHT22;6006;49.696;8.662;2024-01-16T05:00:58;-0.90;99.90
11894;DHT22;6006;49.696;8.662;2024-01-16T05:03:25;-1.00;88.00
11894;DHT22;6006;49.696;8.662;2024-01-16T05:05:52;-1.10;1.00
11894;DHT22;6006;49.696;8.662;2024-01-16T05:08:19;-1.10;1.00
11894;DHT22;6006;49.696;8.662;2024-01-16T05:10:46;-1.20;1.00
11894;DHT22;6006;49.696;8.662;2024-01-16T05:13:12;-1.40;1.00
11894;DHT22;6006;49.696;8.662;2024-01-16T05:15:41;-1.40;1.00
11894;DHT22;6006;49.696;8.662;2024-01-16T05:18:08;-1.50;1.00
11894;DHT22;6006;49.696;8.662;2024-01-16T05:20:35;-1.90;1.00
11894;DHT22;6006;49.696;8.662;2024-01-16T05:23:03;-1.90;1.00
11894;DHT22;6006;49.696;8.662;2024-01-16T05:25:30;-2.10;99.90
11894;DHT22;6006;49.696;8.662;2024-01-16T05:27:56;-2.50;34.80
11894;DHT22;6006;49.696;8.662;2024-01-16T05:30:23;-2.50;99.90
11894;DHT22;6006;49.696;8.662;2024-01-16T05:32:51;-2.60;99.90
11894;DHT22;6006;49.696;8.662;2024-01-16T05:35:19;-2.90;99.90
11894;DHT22;6006;49.696;8.662;2024-01-16T05:37:45;-2.90;99.90
11894;DHT22;6006;49.696;8.662;2024-01-16T05:40:13;-3.10;1.00
11894;DHT22;6006;49.696;8.662;2024-01-16T05:42:40;-3.10;1.00
11894;DHT22;6006;49.696;8.662;2024-01-16T05:45:08;-3.10;1.00
11894;DHT22;6006;49.696;8.662;2024-01-16T05:47:35;-3.20;1.00
11894;DHT22;6006;49.696;8.662;2024-01-16T05:50:04;-3.30;1.00
11894;DHT22;6006;49.696;8.662;2024-01-16T05:52:31;-3.30;1.00
11894;DHT22;6006;49.696;8.662;2024-01-16T05:54:58;-3.30;1.00
11894;DHT22;6006;49.696;8.662;2024-01-16T05:57:25;-3.40;1.00
11894;DHT22;6006;49.696;8.662;2024-01-16T05:59:52;-3.40;1.00
11894;DHT22;6006;49.696;8.662;2024-01-16T06:02:19;-3.50;1.00
11894;DHT22;6006;49.696;8.662;2024-01-16T06:04:46;-3.70;1.00
11894;DHT22;6006;49.696;8.662;2024-01-16T06:07:14;-3.70;1.00
11894;DHT22;6006;49.696;8.662;2024-01-16T06:09:41;-3.20;1.00
11894;DHT22;6006;49.696;8.662;2024-01-16T06:12:08;-3.70;1.00
11894;DHT22;6006;49.696;8.662;2024-01-16T06:14:35;-3.80;1.00
11894;DHT22;6006;49.696;8.662;2024-01-16T06:17:02;-3.80;1.00
11894;DHT22;6006;49.696;8.662;2024-01-16T06:19:31;-3.80;1.00
11894;DHT22;6006;49.696;8.662;2024-01-16T06:21:58;-3.70;1.00
11894;DHT22;6006;49.696;8.662;2024-01-16T06:24:26;-3.70;17.90
11894;DHT22;6006;49.696;8.662;2024-01-16T06:26:53;-3.70;40.10
11894;DHT22;6006;49.696;8.662;2024-01-16T06:29:20;-3.70;70.10
11894;DHT22;6006;49.696;8.662;2024-01-16T06:31:47;-3.70;82.10
11894;DHT22;6006;49.696;8.662;2024-01-16T06:34:13;-3.60;83.30
11894;DHT22;6006;49.696;8.662;2024-01-16T06:36:40;-3.60;99.90
11894;DHT22;6006;49.696;8.662;2024-01-16T06:39:07;-3.60;99.90
11894;DHT22;6006;49.696;8.662;2024-01-16T06:41:35;-3.50;99.90
11894;DHT22;6006;49.696;8.662;2024-01-16T06:44:02;-3.60;99.90
11894;DHT22;6006;49.696;8.662;2024-01-16T06:46:29;-3.50;99.90
11894;DHT22;6006;49.696;8.662;2024-01-16T06:48:56;-3.60;99.90
11894;DHT22;6006;49.696;8.662;2024-01-16T06:51:23;-3.50;99.90
11894;DHT22;6006;49.696;8.662;2024-01-16T06:53:50;-3.60;96.00
11894;DHT22;6006;49.696;8.662;2024-01-16T06:56:16;-3.60;98.60
11894;DHT22;6006;49.696;8.662;2024-01-16T06:58:45;-3.60;99.90
11894;DHT22;6006;49.696;8.662;2024-01-16T07:01:11;-3.70;99.90
11894;DHT22;6006;49.696;8.662;2024-01-16T07:03:39;-3.80;99.90
11894;DHT22;6006;49.696;8.662;2024-01-16T07:06:06;-3.80;99.90
11894;DHT22;6006;49.696;8.662;2024-01-16T07:08:33;-3.70;99.90
11894;DHT22;6006;49.696;8.662;2024-01-16T07:11:01;-3.70;99.90
11894;DHT22;6006;49.696;8.662;2024-01-16T07:13:28;-3.70;99.90
11894;DHT22;6006;49.696;8.662;2024-01-16T07:15:56;-3.70;99.90
11894;DHT22;6006;49.696;8.662;2024-01-16T07:18:23;-3.70;99.90
11894;DHT22;6006;49.696;8.662;2024-01-16T07:20:50;-3.80;99.90
11894;DHT22;6006;49.696;8.662;2024-01-16T07:23:17;-3.80;99.90
11894;DHT22;6006;49.696;8.662;2024-01-16T07:25:43;-3.80;99.90
11894;DHT22;6006;49.696;8.662;2024-01-16T07:28:10;-3.80;99.90
11894;DHT22;6006;49.696;8.662;2024-01-16T07:30:39;-3.80;99.90
11894;DHT22;6006;49.696;8.662;2024-01-16T07:33:08;-3.80;99.90
11894;DHT22;6006;49.696;8.662;2024-01-16T07:35:34;-3.80;99.90
11894;DHT22;6006;49.696;8.662;2024-01-16T07:38:01;-3.80;99.90
11894;DHT22;6006;49.696;8.662;2024-01-16T07:40:28;-3.70;99.90
11894;DHT22;6006;49.696;8.662;2024-01-16T07:42:55;-3.70;99.90
11894;DHT22;6006;49.696;8.662;2024-01-16T07:45:22;-3.60;99.90
11894;DHT22;6006;49.696;8.662;2024-01-16T07:47:49;-3.50;99.90
11894;DHT22;6006;49.696;8.662;2024-01-16T07:50:17;-3.00;99.90
11894;DHT22;6006;49.696;8.662;2024-01-16T07:52:44;-2.80;99.90
11894;DHT22;6006;49.696;8.662;2024-01-16T07:55:11;-2.70;99.90
11894;DHT22;6006;49.696;8.662;2024-01-16T07:57:38;-2.60;99.90
11894;DHT22;6006;49.696;8.662;2024-01-16T08:00:06;-2.70;99.90
11894;DHT22;6006;49.696;8.662;2024-01-16T08:02:37;-2.70;99.90
11894;DHT22;6006;49.696;8.662;2024-01-16T08:05:04;-2.70;99.90
11894;DHT22;6006;49.696;8.662;2024-01-16T08:07:33;-2.60;99.90
11894;DHT22;6006;49.696;8.662;2024-01-16T08:10:00;-2.70;97.80
11894;DHT22;6006;49.696;8.662;2024-01-16T08:12:36;-2.70;37.70
11894;DHT22;6006;49.696;8.662;2024-01-16T08:15:07;-2.60;61.00
11894;DHT22;6006;49.696;8.662;2024-01-16T08:17:34;-2.60;26.50
11894;DHT22;6006;49.696;8.662;2024-01-16T08:20:01;-0.40;1.00
11894;DHT22;6006;49.696;8.662;2024-01-16T08:22:28;-2.60;7.70
11894;DHT22;6006;49.696;8.662;2024-01-16T08:24:57;-2.50;35.10
11894;DHT22;6006;49.696;8.662;2024-01-16T08:27:23;-2.30;51.00
11894;DHT22;6006;49.696;8.662;2024-01-16T08:29:50;-2.20;82.30
11894;DHT22;6006;49.696;8.662;2024-01-16T08:32:17;-2.10;79.20
11894;DHT22;6006;49.696;8.662;2024-01-16T08:34:44;-2.00;32.30
11894;DHT22;6006;49.696;8.662;2024-01-16T08:37:11;-1.90;10.20
11894;DHT22;6006;49.696;8.662;2024-01-16T08:39:38;-1.70;4.30
11894;DHT22;6006;49.696;8.662;2024-01-16T08:42:07;-1.60;1.00
11894;DHT22;6006;49.696;8.662;2024-01-16T08:44:37;-1.60;1.00
11894;DHT22;6006;49.696;8.662;2024-01-16T08:47:04;-1.50;1.00
11894;DHT22;6006;49.696;8.662;2024-01-16T08:49:31;-1.40;1.00
11894;DHT22;6006;49.696;8.662;2024-01-16T08:51:58;-1.30;1.00
11894;DHT22;6006;49.696;8.662;2024-01-16T08:54:25;-1.20;1.00
11894;DHT22;6006;49.696;8.662;2024-01-16T08:56:52;-1.00;1.00
11894;DHT22;6006;49.696;8.662;2024-01-16T08:59:20;-1.00;99.90
11894;DHT22;6006;49.696;8.662;2024-01-16T09:01:48;-0.90;1.00
11894;DHT22;6006;49.696;8.662;2024-01-16T09:04:15;-0.80;1.00
11894;DHT22;6006;49.696;8.662;2024-01-16T09:06:42;-1.00;99.90
11894;DHT22;6006;49.696;8.662;2024-01-16T09:09:08;-0.80;23.30
11894;DHT22;6006;49.696;8.662;2024-01-16T09:11:35;-0.80;1.00
11894;DHT22;6006;49.696;8.662;2024-01-16T09:14:02;-0.70;61.80
11894;DHT22;6006;49.696;8.662;2024-01-16T09:16:30;-0.60;1.00
11894;DHT22;6006;49.696;8.662;2024-01-16T09:18:57;-0.50;1.00
11894;DHT22;6006;49.696;8.662;2024-01-16T09:21:24;-0.40;1.00
11894;DHT22;6006;49.696;8.662;2024-01-16T09:23:51;-0.30;1.50
11894;DHT22;6006;49.696;8.662;2024-01-16T09:26:18;-0.30;1.00
11894;DHT22;6006;49.696;8.662;2024-01-16T09:28:46;-0.20;1.00
11894;DHT22;6006;49.696;8.662;2024-01-16T09:31:15;-0.10;1.00
11894;DHT22;6006;49.696;8.662;2024-01-16T09:33:43;0.10;99.90
11894;DHT22;6006;49.696;8.662;2024-01-16T09:36:10;0.30;99.90
11894;DHT22;6006;49.696;8.662;2024-01-16T09:38:37;0.40;99.90
11894;DHT22;6006;49.696;8.662;2024-01-16T09:41:04;0.60;1.00
11894;DHT22;6006;49.696;8.662;2024-01-16T09:43:32;0.60;1.00
11894;DHT22;6006;49.696;8.662;2024-01-16T09:46:00;0.70;99.90
11894;DHT22;6006;49.696;8.662;2024-01-16T09:48:28;0.90;1.00
11894;DHT22;6006;49.696;8.662;2024-01-16T09:50:57;1.10;99.90
11894;DHT22;6006;49.696;8.662;2024-01-16T09:53:24;0.90;99.90
11894;DHT22;6006;49.696;8.662;2024-01-16T09:55:54;0.90;99.90
11894;DHT22;6006;49.696;8.662;2024-01-16T09:58:27;0.80;1.00
11894;DHT22;6006;49.696;8.662;2024-01-16T10:00:55;0.70;1.00
11894;DHT22;6006;49.696;8.662;2024-01-16T10:03:23;0.60;1.00
11894;DHT22;6006;49.696;8.662;2024-01-16T10:05:52;0.60;1.00
11894;DHT22;6006;49.696;8.662;2024-01-16T10:08:21;0.70;1.00
11894;DHT22;6006;49.696;8.662;2024-01-16T10:10:47;0.70;1.00
11894;DHT22;6006;49.696;8.662;2024-01-16T10:13:15;0.70;1.00
11894;DHT22;6006;49.696;8.662;2024-01-16T10:15:42;1.00;1.00
11894;DHT22;6006;49.696;8.662;2024-01-16T10:18:21;0.80;1.00
11894;DHT22;6006;49.696;8.662;2024-01-16T10:20:55;0.90;1.00
11894;DHT22;6006;49.696;8.662;2024-01-16T10:23:27;1.00;1.00
11894;DHT22;6006;49.696;8.662;2024-01-16T10:26:10;0.70;1.00
11894;DHT22;6006;49.696;8.662;2024-01-16T10:28:38;0.60;1.00
11894;DHT22;6006;49.696;8.662;2024-01-16T10:31:06;0.90;1.00
11894;DHT22;6006;49.696;8.662;2024-01-16T10:33:33;1.00;1.00
11894;DHT22;6006;49.696;8.662;2024-01-16T10:36:11;1.10;1.00
11894;DHT22;6006;49.696;8.662;2024-01-16T10:38:40;1.00;1.00
11894;DHT22;6006;49.696;8.662;2024-01-16T10:41:09;1.20;1.00
11894;DHT22;6006;49.696;8.662;2024-01-16T10:43:37;1.30;1.00
11894;DHT22;6006;49.696;8.662;2024-01-16T10:46:08;1.70;1.00
11894;DHT22;6006;49.696;8.662;2024-01-16T10:48:37;1.40;1.00
11894;DHT22;6006;49.696;8.662;2024-01-16T10:51:06;0.90;1.00
11894;DHT22;6006;49.696;8.662;2024-01-16T10:53:34;1.00;1.00
11894;DHT22;6006;49.696;8.662;2024-01-16T10:56:06;1.10;1.00
11894;DHT22;6006;49.696;8.662;2024-01-16T10:58:35;1.00;1.00
11894;DHT22;6006;49.696;8.662;2024-01-16T11:01:03;1.10;1.00
11894;DHT22;6006;49.696;8.662;2024-01-16T11:03:36;1.40;1.00
11894;DHT22;6006;49.696;8.662;2024-01-16T11:06:06;1.40;1.00
11894;DHT22;6006;49.696;8.662;2024-01-16T11:08:36;1.10;1.00
11894;DHT22;6006;49.696;8.662;2024-01-16T11:11:05;1.10;1.00
11894;DHT22;6006;49.696;8.662;2024-01-16T11:13:33;1.30;1.00
11894;DHT22;6006;49.696;8.662;2024-01-16T11:16:01;1.50;1.00
11894;DHT22;6006;49.696;8.662;2024-01-16T11:18:31;1.30;1.00
11894;DHT22;6006;49.696;8.662;2024-01-16T11:20:58;1.20;1.00
11894;DHT22;6006;49.696;8.662;2024-01-16T11:23:26;1.10;1.00
11894;DHT22;6006;49.696;8.662;2024-01-16T11:25:53;1.20;1.00
11894;DHT22;6006;49.696;8.662;2024-01-16T11:28:28;1.30;1.00
11894;DHT22;6006;49.696;8.662;2024-01-16T11:30:56;1.20;1.00
11894;DHT22;6006;49.696;8.662;2024-01-16T11:33:41;1.10;1.00
11894;DHT22;6006;49.696;8.662;2024-01-16T11:39:17;1.10;1.00
11894;DHT22;6006;49.696;8.662;2024-01-16T11:41:51;1.00;1.00
11894;DHT22;6006;49.696;8.662;2024-01-16T11:44:42;1.00;1.00
11894;DHT22;6006;49.696;8.662;2024-01-16T11:47:10;1.00;1.00
11894;DHT22;6006;49.696;8.662;2024-01-16T11:49:41;0.70;1.00
11894;DHT22;6006;49.696;8.662;2024-01-16T11:52:08;0.70;1.00
11894;DHT22;6006;49.696;8.662;2024-01-16T11:54:36;0.60;1.00
11894;DHT22;6006;49.696;8.662;2024-01-16T11:57:36;0.40;1.00
11894;DHT22;6006;49.696;8.662;2024-01-16T12:00:19;0.50;1.00
11894;DHT22;6006;49.696;8.662;2024-01-16T12:02:52;0.40;1.00
11894;DHT22;6006;49.696;8.662;2024-01-16T12:05:20;0.50;1.00
11894;DHT22;6006;49.696;8.662;2024-01-16T12:07:48;0.80;1.00
11894;DHT22;6006;49.696;8.662;2024-01-16T12:10:16;1.20;1.00
11894;DHT22;6006;49.696;8.662;2024-01-16T12:12:43;1.30;1.00
11894;DHT22;6006;49.696;8.662;2024-01-16T12:15:16;1.40;1.00
11894;DHT22;6006;49.696;8.662;2024-01-16T12:17:56;1.50;1.00
11894;DHT22;6006;49.696;8.662;2024-01-16T12:20:25;1.50;1.00
11894;DHT22;6006;49.696;8.662;2024-01-16T12:22:57;1.30;1.00
11894;DHT22;6006;49.696;8.662;2024-01-16T12:25:25;1.30;1.00
11894;DHT22;6006;49.696;8.662;2024-01-16T12:27:56;1.20;1.00
11894;DHT22;6006;49.696;8.662;2024-01-16T12:30:25;1.70;1.00
11894;DHT22;6006;49.696;8.662;2024-01-16T12:33:03;2.10;99.90
11894;DHT22;6006;49.696;8.662;2024-01-16T12:35:31;2.10;99.90
11894;DHT22;6006;49.696;8.662;2024-01-16T12:37:59;2.00;99.90
11894;DHT22;6006;49.696;8.662;2024-01-16T12:40:26;2.10;99.90
11894;DHT22;6006;49.696;8.662;2024-01-16T12:42:54;2.10;99.90
11894;DHT22;6006;49.696;8.662;2024-01-16T12:45:21;1.90;99.90
11894;DHT22;6006;49.696;8.662;2024-01-16T12:47:53;1.70;99.90
11894;DHT22;6006;49.696;8.662;2024-01-16T12:50:24;1.80;99.90
11894;DHT22;6006;49.696;8.662;2024-01-16T12:53:01;2.00;99.90
11894;DHT22;6006;49.696;8.662;2024-01-16T12:55:28;2.40;99.90
11894;DHT22;6006;49.696;8.662;2024-01-16T12:58:14;2.30;99.90
11894;DHT22;6006;49.696;8.662;2024-01-16T13:00:41;2.20;99.90
11894;DHT22;6006;49.696;8.662;2024-01-16T13:03:14;2.60;99.90
11894;DHT22;6006;49.696;8.662;2024-01-16T13:05:42;2.80;99.90
11894;DHT22;6006;49.696;8.662;2024-01-16T13:08:09;2.70;99.90
11894;DHT22;6006;49.696;8.662;2024-01-16T13:10:36;2.70;99.90
11894;DHT22;6006;49.696;8.662;2024-01-16T13:13:14;2.70;99.90
11894;DHT22;6006;49.696;8.662;2024-01-16T13:15:41;2.70;99.90
11894;DHT22;6006;49.696;8.662;2024-01-16T13:18:18;3.10;99.90
11894;DHT22;6006;49.696;8.662;2024-01-16T13:20:47;3.00;99.90
11894;DHT22;6006;49.696;8.662;2024-01-16T13:23:14;2.60;99.90
11894;DHT22;6006;49.696;8.662;2024-01-16T13:25:43;2.70;99.90
11894;DHT22;6006;49.696;8.662;2024-01-16T13:28:11;3.10;99.90
11894;DHT22;6006;49.696;8.662;2024-01-16T13:30:38;2.80;99.90
11894;DHT22;6006;49.696;8.662;2024-01-16T13:33:05;2.50;99.90
11894;DHT22;6006;49.696;8.662;2024-01-16T13:35:38;2.40;99.90
11894;DHT22;6006;49.696;8.662;2024-01-16T13:38:07;2.60;99.90
11894;DHT22;6006;49.696;8.662;2024-01-16T13:40:35;2.40;99.90
11894;DHT22;6006;49.696;8.662;2024-01-16T13:43:03;2.50;99.90
11894;DHT22;6006;49.696;8.662;2024-01-16T13:45:32;2.40;99.90
11894;DHT22;6006;49.696;8.662;2024-01-16T13:48:01;2.00;99.90
11894;DHT22;6006;49.696;8.662;2024-01-16T13:50:28;2.00;99.90
11894;DHT22;6006;49.696;8.662;2024-01-16T13:52:57;2.40;99.90
11894;DHT22;6006;49.696;8.662;2024-01-16T13:55:24;2.30;99.90
11894;DHT22;6006;49.696;8.662;2024-01-16T13:57:51;2.40;99.90
11894;DHT22;6006;49.696;8.662;2024-01-16T14:00:18;2.20;99.90
11894;DHT22;6006;49.696;8.662;2024-01-16T14:02:46;2.00;99.90
11894;DHT22;6006;49.696;8.662;2024-01-16T14:05:14;2.30;99.90
11894;DHT22;6006;49.696;8.662;2024-01-16T14:07:42;2.40;99.90
11894;DHT22;6006;49.696;8.662;2024-01-16T14:10:12;2.40;99.90
11894;DHT22;6006;49.696;8.662;2024-01-16T14:12:40;2.60;99.90
11894;DHT22;6006;49.696;8.662;2024-01-16T14:15:09;2.70;99.90
11894;DHT22;6006;49.696;8.662;2024-01-16T14:17:41;2.60;99.90
11894;DHT22;6006;49.696;8.662;2024-01-16T14:20:10;2.30;99.90
11894;DHT22;6006;49.696;8.662;2024-01-16T14:22:37;2.20;99.90
11894;DHT22;6006;49.696;8.662;2024-01-16T14:25:06;2.00;99.90
11894;DHT22;6006;49.696;8.662;2024-01-16T14:27:38;2.00;99.90
11894;DHT22;6006;49.696;8.662;2024-01-16T14:30:06;1.90;99.90
11894;DHT22;6006;49.696;8.662;2024-01-16T14:32:36;1.90;99.90
11894;DHT22;6006;49.696;8.662;2024-01-16T14:35:04;1.80;99.90
11894;DHT22;6006;49.696;8.662;2024-01-16T14:37:31;1.80;99.90
11894;DHT22;6006;49.696;8.662;2024-01-16T14:39:58;1.80;99.90
11894;DHT22;6006;49.696;8.662;2024-01-16T14:42:27;1.80;99.90
11894;DHT22;6006;49.696;8.662;2024-01-16T14:44:55;1.80;99.90
11894;DHT22;6006;49.696;8.662;2024-01-16T14:47:22;1.70;99.90
11894;DHT22;6006;49.696;8.662;2024-01-16T14:49:49;1.90;99.90
11894;DHT22;6006;49.696;8.662;2024-01-16T14:52:20;1.90;99.90
11894;DHT22;6006;49.696;8.662;2024-01-16T14:54:47;1.80;99.90
11894;DHT22;6006;49.696;8.662;2024-01-16T14:57:15;2.00;99.90
11894;DHT22;6006;49.696;8.662;2024-01-16T14:59:42;1.80;99.90
11894;DHT22;6006;49.696;8.662;2024-01-16T15:02:12;1.70;99.90
11894;DHT22;6006;49.696;8.662;2024-01-16T15:04:39;1.80;99.90
11894;DHT22;6006;49.696;8.662;2024-01-16T15:07:06;1.70;99.90
11894;DHT22;6006;49.696;8.662;2024-01-16T15:09:33;1.60;99.90
11894;DHT22;6006;49.696;8.662;2024-01-16T15:12:04;1.60;99.90
11894;DHT22;6006;49.696;8.662;2024-01-16T15:14:31;1.50;99.90
11894;DHT22;6006;49.696;8.662;2024-01-16T15:16:58;1.50;99.90
11894;DHT22;6006;49.696;8.662;2024-01-16T15:19:26;1.40;99.90
11894;DHT22;6006;49.696;8.662;2024-01-16T15:21:57;1.30;99.90
11894;DHT22;6006;49.696;8.662;2024-01-16T15:24:24;1.30;99.90
11894;DHT22;6006;49.696;8.662;2024-01-16T15:26:54;1.10;99.90
11894;DHT22;6006;49.696;8.662;2024-01-16T15:29:21;1.00;99.90
11894;DHT22;6006;49.696;8.662;2024-01-16T15:31:48;1.00;99.90
11894;DHT22;6006;49.696;8.662;2024-01-16T15:34:15;0.90;99.90
11894;DHT22;6006;49.696;8.662;2024-01-16T15:36:44;0.80;99.90
11894;DHT22;6006;49.696;8.662;2024-01-16T15:39:11;0.70;99.90
11894;DHT22;6006;49.696;8.662;2024-01-16T15:41:41;0.40;99.90
11894;DHT22;6006;49.696;8.662;2024-01-16T15:44:08;0.30;99.90
11894;DHT22;6006;49.696;8.662;2024-01-16T15:49:16;-0.30;1.00
11894;DHT22;6006;49.696;8.662;2024-01-16T15:51:44;-0.60;1.00
11894;DHT22;6006;49.696;8.662;2024-01-16T15:54:11;-0.70;1.00
11894;DHT22;6006;49.696;8.662;2024-01-16T15:56:38;-1.00;1.00
11894;DHT22;6006;49.696;8.662;2024-01-16T15:59:05;-1.10;1.00
11894;DHT22;6006;49.696;8.662;2024-01-16T16:01:32;-1.30;1.00
11894;DHT22;6006;49.696;8.662;2024-01-16T16:03:59;-1.40;1.00
11894;DHT22;6006;49.696;8.662;2024-01-16T16:06:26;-1.40;1.00
11894;DHT22;6006;49.696;8.662;2024-01-16T16:08:54;-1.40;1.00
11894;DHT22;6006;49.696;8.662;2024-01-16T16:11:21;-1.50;1.00